createdAt,value
2023-03-06T00:07:21.645Z,8.00
2023-03-06T00:17:21.468Z,6.80
2023-03-06T00:27:20.903Z,8.10
2023-03-06T00:37:20.571Z,7.10
2023-03-06T00:47:20.253Z,8.60
2023-03-06T00:57:20.003Z,8.40
2023-03-06T01:07:14.244Z,4.70
2023-03-06T01:17:15.356Z,5.20
2023-03-06T01:27:13.514Z,4.70
2023-03-06T01:37:13.358Z,5.90
2023-03-06T01:47:12.679Z,5.70
2023-03-06T01:57:12.715Z,6.30
2023-03-06T02:07:12.079Z,5.10
2023-03-06T02:17:11.956Z,5.80
2023-03-06T02:27:06.043Z,7.00
2023-03-06T02:37:05.402Z,9.30
2023-03-06T02:47:05.175Z,9.90
2023-03-06T02:57:04.694Z,7.40
2023-03-06T03:07:04.305Z,7.50
2023-03-06T03:17:03.952Z,7.80
2023-03-06T03:27:03.571Z,8.20
2023-03-06T03:36:59.760Z,7.90
2023-03-06T03:46:57.746Z,9.40
2023-03-06T03:56:57.470Z,8.50
2023-03-06T04:06:57.097Z,8.50
2023-03-06T04:16:57.022Z,8.00
2023-03-06T04:26:56.463Z,8.50
2023-03-06T04:36:55.989Z,8.20
2023-03-06T04:46:50.411Z,7.00
2023-03-06T04:56:50.049Z,7.90
2023-03-06T05:06:49.895Z,8.60
2023-03-06T05:16:49.459Z,8.60
2023-03-06T05:26:48.958Z,8.30
2023-03-06T05:36:48.604Z,6.20
2023-03-06T05:46:48.305Z,7.30
2023-03-06T05:56:43.081Z,8.30
2023-03-06T06:06:43.940Z,8.00
2023-03-06T06:16:42.210Z,6.90
2023-03-06T06:26:41.636Z,7.50
2023-03-06T06:36:43.053Z,9.00
2023-03-06T06:47:20.600Z,9.10
2023-03-06T06:56:40.614Z,9.00
2023-03-06T07:06:40.163Z,9.60
2023-03-06T07:16:34.548Z,11.10
2023-03-06T07:26:34.818Z,10.30
2023-03-06T07:36:33.747Z,11.20
2023-03-06T07:46:33.275Z,10.30
2023-03-06T07:56:32.923Z,8.10
2023-03-06T08:06:32.562Z,10.00
2023-03-06T08:16:32.296Z,10.00
2023-03-06T08:26:34.005Z,10.70
2023-03-06T08:36:26.117Z,8.90
2023-03-06T08:46:25.564Z,8.50
2023-03-06T08:56:25.202Z,10.70
2023-03-06T09:06:24.825Z,8.80
2023-03-06T09:16:24.562Z,9.00
2023-03-06T09:26:30.280Z,9.60
2023-03-06T09:36:23.759Z,10.80
2023-03-06T09:46:23.492Z,7.60
2023-03-06T09:56:17.504Z,7.10
2023-03-06T10:06:17.180Z,10.00
2023-03-06T10:16:16.821Z,9.40
2023-03-06T10:26:16.621Z,10.20
2023-03-06T10:36:16.069Z,11.30
2023-03-06T10:46:17.654Z,10.50
2023-03-06T10:56:15.287Z,12.10
2023-03-06T11:06:15.140Z,12.40
2023-03-06T11:16:09.094Z,11.90
2023-03-06T11:26:08.886Z,10.00
2023-03-06T11:36:08.313Z,8.50
2023-03-06T11:46:08.115Z,10.00
2023-03-06T11:56:07.570Z,4.50
2023-03-06T12:06:07.393Z,10.00
2023-03-06T12:16:06.853Z,9.60
2023-03-06T12:26:06.663Z,10.40
2023-03-06T12:36:00.719Z,10.90
2023-03-06T12:46:00.416Z,9.60
2023-03-06T12:55:59.918Z,7.80
2023-03-06T13:05:59.596Z,7.30
2023-03-06T13:15:59.183Z,7.90
2023-03-06T13:25:58.904Z,9.50
2023-03-06T13:35:58.599Z,8.30
2023-03-06T13:45:58.221Z,10.10
2023-03-06T13:55:57.728Z,6.60
2023-03-06T14:05:52.259Z,7.80
2023-03-06T14:15:51.945Z,5.80
2023-03-06T14:25:51.542Z,7.20
2023-03-06T14:35:51.179Z,8.60
2023-03-06T14:45:50.770Z,7.10
2023-03-06T14:55:50.419Z,7.80
2023-03-06T15:05:50.008Z,6.50
2023-03-06T15:15:49.734Z,7.50
2023-03-06T15:25:49.255Z,8.20
2023-03-06T15:35:48.968Z,5.30
2023-03-06T15:45:48.636Z,7.00
2023-03-06T15:55:42.828Z,7.10
2023-03-06T16:05:42.419Z,6.60
2023-03-06T16:15:42.088Z,7.50
2023-03-06T16:25:41.654Z,8.00
2023-03-06T16:35:41.491Z,10.00
2023-03-06T16:45:41.476Z,11.30
2023-03-06T16:55:40.572Z,9.20
2023-03-06T17:05:42.197Z,13.20
2023-03-06T17:15:40.482Z,10.70
2023-03-06T17:25:39.402Z,9.10
2023-03-06T17:35:39.066Z,11.30
2023-03-06T17:45:38.619Z,10.50
2023-03-06T17:55:38.894Z,9.30
2023-03-06T18:05:39.017Z,9.90
2023-03-06T18:15:37.899Z,9.60
2023-03-06T18:25:37.477Z,9.60
2023-03-06T18:35:31.622Z,9.40
2023-03-06T18:45:31.271Z,10.00
2023-03-06T18:55:31.217Z,10.20
2023-03-06T19:05:30.893Z,10.60
2023-03-06T19:15:30.152Z,10.30
2023-03-06T19:25:30.491Z,10.40
2023-03-06T19:35:29.751Z,9.90
2023-03-06T19:45:29.099Z,9.90
2023-03-06T19:55:29.737Z,7.40
2023-03-06T20:05:28.340Z,9.40
2023-03-06T20:15:28.167Z,9.60
2023-03-06T20:25:22.540Z,9.90
2023-03-06T20:35:22.213Z,9.70
2023-03-06T20:45:22.110Z,8.80
2023-03-06T20:55:21.753Z,7.90
2023-03-06T21:05:21.098Z,7.00
2023-03-06T21:15:20.675Z,7.70
2023-03-06T21:25:20.702Z,8.00
2023-03-06T21:35:19.962Z,8.60
2023-03-06T21:45:19.607Z,7.90
2023-03-06T21:55:13.990Z,8.70
2023-03-06T22:05:13.774Z,7.90
2023-03-06T22:15:16.852Z,8.10
2023-03-06T22:25:12.908Z,7.40
2023-03-06T22:35:12.624Z,7.10
2023-03-06T22:45:12.199Z,8.00
2023-03-06T22:55:12.157Z,6.90
2023-03-06T23:05:11.630Z,8.50
2023-03-06T23:15:06.023Z,9.10
2023-03-06T23:25:05.974Z,8.90
2023-03-06T23:35:06.851Z,9.50
2023-03-06T23:45:05.306Z,9.10
2023-03-06T23:55:04.579Z,7.90
